sensor_id;sensor_type;location;lat;lon;timestamp;temperature;humidity
19044;DHT22;9654;52.302;8.120;2022-12-18T00:02:05;-9.90;99.90
19044;DHT22;9654;52.302;8.120;2022-12-18T00:04:33;-10.00;99.90
19044;DHT22;9654;52.302;8.120;2022-12-18T00:07:00;-10.00;99.90
19044;DHT22;9654;52.302;8.120;2022-12-18T00:09:27;-10.10;99.90
19044;DHT22;9654;52.302;8.120;2022-12-18T00:11:54;-10.10;99.90
19044;DHT22;9654;52.302;8.120;2022-12-18T00:14:20;-10.20;99.90
19044;DHT22;9654;52.302;8.120;2022-12-18T00:16:47;-10.20;99.90
19044;DHT22;9654;52.302;8.120;2022-12-18T00:19:14;-10.20;99.90
19044;DHT22;9654;52.302;8.120;2022-12-18T00:21:43;-10.10;99.90
19044;DHT22;9654;52.302;8.120;2022-12-18T00:24:11;-10.00;99.90
19044;DHT22;9654;52.302;8.120;2022-12-18T00:26:39;-10.00;99.90
19044;DHT22;9654;52.302;8.120;2022-12-18T00:29:07;-10.00;99.90
19044;DHT22;9654;52.302;8.120;2022-12-18T00:31:34;-10.00;99.90
19044;DHT22;9654;52.302;8.120;2022-12-18T00:34:02;-10.10;99.90
19044;DHT22;9654;52.302;8.120;2022-12-18T00:36:31;-10.20;99.90
19044;DHT22;9654;52.302;8.120;2022-12-18T00:39:01;-10.20;99.90
19044;DHT22;9654;52.302;8.120;2022-12-18T00:41:28;-10.30;99.90
19044;DHT22;9654;52.302;8.120;2022-12-18T00:44:14;-10.30;99.90
19044;DHT22;9654;52.302;8.120;2022-12-18T00:46:41;-10.10;99.90
19044;DHT22;9654;52.302;8.120;2022-12-18T00:49:11;-10.10;99.90
19044;DHT22;9654;52.302;8.120;2022-12-18T00:51:38;-10.00;99.90
19044;DHT22;9654;52.302;8.120;2022-12-18T00:54:06;-10.00;99.90
19044;DHT22;9654;52.302;8.120;2022-12-18T00:56:35;-10.00;99.90
19044;DHT22;9654;52.302;8.120;2022-12-18T00:59:02;-10.00;99.90
19044;DHT22;9654;52.302;8.120;2022-12-18T01:01:29;-10.00;99.90
19044;DHT22;9654;52.302;8.120;2022-12-18T01:04:00;-10.00;99.90
19044;DHT22;9654;52.302;8.120;2022-12-18T01:06:27;-10.00;99.90
19044;DHT22;9654;52.302;8.120;2022-12-18T01:08:54;-10.00;99.90
19044;DHT22;9654;52.302;8.120;2022-12-18T01:11:23;-9.90;99.90
19044;DHT22;9654;52.302;8.120;2022-12-18T01:13:51;-9.90;99.90
19044;DHT22;9654;52.302;8.120;2022-12-18T01:16:19;-9.90;99.90
19044;DHT22;9654;52.302;8.120;2022-12-18T01:18:46;-10.00;99.90
19044;DHT22;9654;52.302;8.120;2022-12-18T01:21:15;-10.10;99.90
19044;DHT22;9654;52.302;8.120;2022-12-18T01:23:45;-10.10;99.90
19044;DHT22;9654;52.302;8.120;2022-12-18T01:26:14;-10.10;99.90
19044;DHT22;9654;52.302;8.120;2022-12-18T01:28:43;-10.00;99.90
19044;DHT22;9654;52.302;8.120;2022-12-18T01:31:15;-10.00;99.90
19044;DHT22;9654;52.302;8.120;2022-12-18T01:33:42;-10.00;99.90
19044;DHT22;9654;52.302;8.120;2022-12-18T01:36:15;-10.10;99.90
19044;DHT22;9654;52.302;8.120;2022-12-18T01:38:43;-10.10;99.90
19044;DHT22;9654;52.302;8.120;2022-12-18T01:41:10;-10.10;99.90
19044;DHT22;9654;52.302;8.120;2022-12-18T01:43:48;-10.00;99.90
19044;DHT22;9654;52.302;8.120;2022-12-18T01:46:16;-9.90;99.90
19044;DHT22;9654;52.302;8.120;2022-12-18T01:48:43;-9.90;99.90
19044;DHT22;9654;52.302;8.120;2022-12-18T01:51:11;-9.90;99.90
19044;DHT22;9654;52.302;8.120;2022-12-18T01:53:42;-9.90;99.90
19044;DHT22;9654;52.302;8.120;2022-12-18T01:56:13;-10.00;99.90
19044;DHT22;9654;52.302;8.120;2022-12-18T01:58:48;-10.00;99.90
19044;DHT22;9654;52.302;8.120;2022-12-18T02:01:16;-10.10;99.90
19044;DHT22;9654;52.302;8.120;2022-12-18T02:03:43;-10.10;99.90
19044;DHT22;9654;52.302;8.120;2022-12-18T02:06:15;-10.00;99.90
19044;DHT22;9654;52.302;8.120;2022-12-18T02:08:48;-9.90;99.90
19044;DHT22;9654;52.302;8.120;2022-12-18T02:11:22;-9.80;99.90
19044;DHT22;9654;52.302;8.120;2022-12-18T02:13:55;-9.70;99.90
19044;DHT22;9654;52.302;8.120;2022-12-18T02:16:33;-9.80;99.90
19044;DHT22;9654;52.302;8.120;2022-12-18T02:19:08;-9.80;99.90
19044;DHT22;9654;52.302;8.120;2022-12-18T02:21:48;-9.90;99.90
19044;DHT22;9654;52.302;8.120;2022-12-18T02:24:24;-10.00;99.90
19044;DHT22;9654;52.302;8.120;2022-12-18T02:26:56;-10.00;99.90
19044;DHT22;9654;52.302;8.120;2022-12-18T02:29:26;-10.10;99.90
19044;DHT22;9654;52.302;8.120;2022-12-18T02:31:59;-10.10;99.90
19044;DHT22;9654;52.302;8.120;2022-12-18T02:34:29;-10.00;99.90
19044;DHT22;9654;52.302;8.120;2022-12-18T02:37:00;-9.90;99.90
19044;DHT22;9654;52.302;8.120;2022-12-18T02:39:29;-9.90;99.90
19044;DHT22;9654;52.302;8.120;2022-12-18T02:41:58;-10.00;99.90
19044;DHT22;9654;52.302;8.120;2022-12-18T02:44:28;-10.10;99.90
19044;DHT22;9654;52.302;8.120;2022-12-18T02:46:54;-10.20;99.90
19044;DHT22;9654;52.302;8.120;2022-12-18T02:49:31;-10.20;99.90
19044;DHT22;9654;52.302;8.120;2022-12-18T02:52:06;-10.30;99.90
19044;DHT22;9654;52.302;8.120;2022-12-18T02:54:47;-10.30;99.90
19044;DHT22;9654;52.302;8.120;2022-12-18T02:57:24;-10.30;99.90
19044;DHT22;9654;52.302;8.120;2022-12-18T02:59:57;-10.40;99.90
19044;DHT22;9654;52.302;8.120;2022-12-18T03:02:29;-10.50;99.90
19044;DHT22;9654;52.302;8.120;2022-12-18T03:05:03;-10.50;99.90
19044;DHT22;9654;52.302;8.120;2022-12-18T03:07:36;-10.50;99.90
19044;DHT22;9654;52.302;8.120;2022-12-18T03:10:06;-10.40;99.90
19044;DHT22;9654;52.302;8.120;2022-12-18T03:12:40;-10.40;99.90
19044;DHT22;9654;52.302;8.120;2022-12-18T03:15:13;-10.50;99.90
19044;DHT22;9654;52.302;8.120;2022-12-18T03:17:45;-10.50;99.90
19044;DHT22;9654;52.302;8.120;2022-12-18T03:20:15;-10.50;99.90
19044;DHT22;9654;52.302;8.120;2022-12-18T03:22:46;-10.50;99.90
19044;DHT22;9654;52.302;8.120;2022-12-18T03:25:15;-10.40;99.90
19044;DHT22;9654;52.302;8.120;2022-12-18T03:27:47;-10.30;99.90
19044;DHT22;9654;52.302;8.120;2022-12-18T03:30:16;-10.30;99.90
19044;DHT22;9654;52.302;8.120;2022-12-18T03:32:46;-10.30;99.90
19044;DHT22;9654;52.302;8.120;2022-12-18T03:35:24;-10.30;99.90
19044;DHT22;9654;52.302;8.120;2022-12-18T03:37:53;-10.30;99.90
19044;DHT22;9654;52.302;8.120;2022-12-18T03:40:20;-10.30;99.90
19044;DHT22;9654;52.302;8.120;2022-12-18T03:42:54;-10.30;99.90
19044;DHT22;9654;52.302;8.120;2022-12-18T03:45:27;-10.40;99.90
19044;DHT22;9654;52.302;8.120;2022-12-18T03:48:00;-10.50;99.90
19044;DHT22;9654;52.302;8.120;2022-12-18T03:50:36;-10.50;99.90
19044;DHT22;9654;52.302;8.120;2022-12-18T03:53:14;-10.50;99.90
19044;DHT22;9654;52.302;8.120;2022-12-18T03:55:43;-10.40;99.90
19044;DHT22;9654;52.302;8.120;2022-12-18T03:58:13;-10.40;99.90
19044;DHT22;9654;52.302;8.120;2022-12-18T04:00:42;-10.40;99.90
19044;DHT22;9654;52.302;8.120;2022-12-18T04:03:10;-10.40;99.90
19044;DHT22;9654;52.302;8.120;2022-12-18T04:05:38;-10.40;99.90
19044;DHT22;9654;52.302;8.120;2022-12-18T04:08:06;-10.40;99.90
19044;DHT22;9654;52.302;8.120;2022-12-18T04:10:36;-10.40;99.90
19044;DHT22;9654;52.302;8.120;2022-12-18T04:13:03;-10.50;99.90
19044;DHT22;9654;52.302;8.120;2022-12-18T04:15:32;-10.40;99.90
19044;DHT22;9654;52.302;8.120;2022-12-18T04:18:01;-10.40;99.90
19044;DHT22;9654;52.302;8.120;2022-12-18T04:20:28;-10.40;99.90
19044;DHT22;9654;52.302;8.120;2022-12-18T04:22:55;-10.40;99.90
19044;DHT22;9654;52.302;8.120;2022-12-18T04:25:22;-10.30;99.90
19044;DHT22;9654;52.302;8.120;2022-12-18T04:27:49;-10.30;99.90
19044;DHT22;9654;52.302;8.120;2022-12-18T04:30:15;-10.20;99.90
19044;DHT22;9654;52.302;8.120;2022-12-18T04:32:43;-10.10;99.90
19044;DHT22;9654;52.302;8.120;2022-12-18T04:35:10;-10.10;99.90
19044;DHT22;9654;52.302;8.120;2022-12-18T04:37:37;-10.20;99.90
19044;DHT22;9654;52.302;8.120;2022-12-18T04:40:05;-10.20;99.90
19044;DHT22;9654;52.302;8.120;2022-12-18T04:42:32;-10.30;99.90
19044;DHT22;9654;52.302;8.120;2022-12-18T04:44:58;-10.40;99.90
19044;DHT22;9654;52.302;8.120;2022-12-18T04:47:25;-10.40;99.90
19044;DHT22;9654;52.302;8.120;2022-12-18T04:49:53;-10.40;99.90
19044;DHT22;9654;52.302;8.120;2022-12-18T04:52:20;-10.40;99.90
19044;DHT22;9654;52.302;8.120;2022-12-18T04:54:47;-10.40;99.90
19044;DHT22;9654;52.302;8.120;2022-12-18T04:57:13;-10.30;99.90
19044;DHT22;9654;52.302;8.120;2022-12-18T04:59:40;-10.20;99.90
19044;DHT22;9654;52.302;8.120;2022-12-18T05:02:07;-10.10;99.90
19044;DHT22;9654;52.302;8.120;2022-12-18T05:04:33;-10.00;99.90
19044;DHT22;9654;52.302;8.120;2022-12-18T05:07:02;-10.00;99.90
19044;DHT22;9654;52.302;8.120;2022-12-18T05:09:29;-9.90;99.90
19044;DHT22;9654;52.302;8.120;2022-12-18T05:11:55;-9.70;99.90
19044;DHT22;9654;52.302;8.120;2022-12-18T05:14:22;-9.50;99.90
19044;DHT22;9654;52.302;8.120;2022-12-18T05:16:49;-9.30;99.90
19044;DHT22;9654;52.302;8.120;2022-12-18T05:19:16;-9.10;99.90
19044;DHT22;9654;52.302;8.120;2022-12-18T05:21:43;-9.10;99.90
19044;DHT22;9654;52.302;8.120;2022-12-18T05:24:11;-9.10;99.90
19044;DHT22;9654;52.302;8.120;2022-12-18T05:26:38;-9.10;99.90
19044;DHT22;9654;52.302;8.120;2022-12-18T05:29:05;-9.10;99.90
19044;DHT22;9654;52.302;8.120;2022-12-18T05:31:32;-9.20;99.90
19044;DHT22;9654;52.302;8.120;2022-12-18T05:33:59;-9.20;99.90
19044;DHT22;9654;52.302;8.120;2022-12-18T05:36:26;-9.20;99.90
19044;DHT22;9654;52.302;8.120;2022-12-18T05:38:53;-9.20;99.90
19044;DHT22;9654;52.302;8.120;2022-12-18T05:41:21;-9.00;99.90
19044;DHT22;9654;52.302;8.120;2022-12-18T05:43:48;-9.00;99.90
19044;DHT22;9654;52.302;8.120;2022-12-18T05:46:17;-8.90;99.90
19044;DHT22;9654;52.302;8.120;2022-12-18T05:48:44;-8.90;99.90
19044;DHT22;9654;52.302;8.120;2022-12-18T05:51:13;-8.90;99.90
19044;DHT22;9654;52.302;8.120;2022-12-18T05:53:41;-8.90;99.90
19044;DHT22;9654;52.302;8.120;2022-12-18T05:56:12;-8.70;99.90
19044;DHT22;9654;52.302;8.120;2022-12-18T05:58:41;-8.80;99.90
19044;DHT22;9654;52.302;8.120;2022-12-18T06:01:10;-8.80;99.90
19044;DHT22;9654;52.302;8.120;2022-12-18T06:03:37;-8.80;99.90
19044;DHT22;9654;52.302;8.120;2022-12-18T06:06:12;-8.80;99.90
19044;DHT22;9654;52.302;8.120;2022-12-18T06:08:40;-8.80;99.90
19044;DHT22;9654;52.302;8.120;2022-12-18T06:11:07;-8.70;99.90
19044;DHT22;9654;52.302;8.120;2022-12-18T06:13:33;-8.60;99.90
19044;DHT22;9654;52.302;8.120;2022-12-18T06:16:05;-8.60;99.90
19044;DHT22;9654;52.302;8.120;2022-12-18T06:18:32;-8.50;99.90
19044;DHT22;9654;52.302;8.120;2022-12-18T06:21:00;-8.40;99.90
19044;DHT22;9654;52.302;8.120;2022-12-18T06:23:27;-8.40;99.90
19044;DHT22;9654;52.302;8.120;2022-12-18T06:25:54;-8.50;99.90
19044;DHT22;9654;52.302;8.120;2022-12-18T06:28:21;-8.50;99.90
19044;DHT22;9654;52.302;8.120;2022-12-18T06:30:48;-8.50;99.90
19044;DHT22;9654;52.302;8.120;2022-12-18T06:33:17;-8.40;99.90
19044;DHT22;9654;52.302;8.120;2022-12-18T06:35:44;-8.40;99.90
19044;DHT22;9654;52.302;8.120;2022-12-18T06:38:11;-8.40;99.90
19044;DHT22;9654;52.302;8.120;2022-12-18T06:40:39;-8.40;99.90
19044;DHT22;9654;52.302;8.120;2022-12-18T06:43:06;-8.40;99.90
19044;DHT22;9654;52.302;8.120;2022-12-18T06:45:33;-8.30;99.90
19044;DHT22;9654;52.302;8.120;2022-12-18T06:48:00;-8.30;99.90
19044;DHT22;9654;52.302;8.120;2022-12-18T06:50:29;-8.20;99.90
19044;DHT22;9654;52.302;8.120;2022-12-18T06:52:56;-8.20;99.90
19044;DHT22;9654;52.302;8.120;2022-12-18T06:55:23;-8.10;99.90
19044;DHT22;9654;52.302;8.120;2022-12-18T06:57:49;-8.20;99.90
19044;DHT22;9654;52.302;8.120;2022-12-18T07:00:17;-8.20;99.90
19044;DHT22;9654;52.302;8.120;2022-12-18T07:02:44;-8.30;99.90
19044;DHT22;9654;52.302;8.120;2022-12-18T07:05:10;-8.30;99.90
19044;DHT22;9654;52.302;8.120;2022-12-18T07:07:39;-8.30;99.90
19044;DHT22;9654;52.302;8.120;2022-12-18T07:10:06;-8.40;99.90
19044;DHT22;9654;52.302;8.120;2022-12-18T07:12:33;-8.40;99.90
19044;DHT22;9654;52.302;8.120;2022-12-18T07:15:00;-8.40;99.90
19044;DHT22;9654;52.302;8.120;2022-12-18T07:17:28;-8.40;99.90
19044;DHT22;9654;52.302;8.120;2022-12-18T07:19:55;-8.40;99.90
19044;DHT22;9654;52.302;8.120;2022-12-18T07:22:22;-8.40;99.90
19044;DHT22;9654;52.302;8.120;2022-12-18T07:24:52;-8.40;99.90
19044;DHT22;9654;52.302;8.120;2022-12-18T07:27:19;-8.30;99.90
19044;DHT22;9654;52.302;8.120;2022-12-18T07:29:46;-8.30;99.90
19044;DHT22;9654;52.302;8.120;2022-12-18T07:32:13;-8.30;99.90
19044;DHT22;9654;52.302;8.120;2022-12-18T07:34:46;-8.40;99.90
19044;DHT22;9654;52.302;8.120;2022-12-18T07:37:13;-8.50;99.90
19044;DHT22;9654;52.302;8.120;2022-12-18T07:39:39;-8.50;99.90
19044;DHT22;9654;52.302;8.120;2022-12-18T07:42:10;-8.60;99.90
19044;DHT22;9654;52.302;8.120;2022-12-18T07:44:55;-8.50;99.90
19044;DHT22;9654;52.302;8.120;2022-12-18T07:47:22;-8.50;99.90
19044;DHT22;9654;52.302;8.120;2022-12-18T07:49:49;-8.50;99.90
19044;DHT22;9654;52.302;8.120;2022-12-18T07:52:16;-8.50;99.90
19044;DHT22;9654;52.302;8.120;2022-12-18T07:54:43;-8.40;99.90
19044;DHT22;9654;52.302;8.120;2022-12-18T07:57:14;-8.40;99.90
19044;DHT22;9654;52.302;8.120;2022-12-18T07:59:41;-8.50;99.90
19044;DHT22;9654;52.302;8.120;2022-12-18T08:02:08;-8.40;99.90
19044;DHT22;9654;52.302;8.120;2022-12-18T08:04:35;-8.40;99.90
19044;DHT22;9654;52.302;8.120;2022-12-18T08:07:04;-8.30;99.90
19044;DHT22;9654;52.302;8.120;2022-12-18T08:09:31;-8.20;99.90
19044;DHT22;9654;52.302;8.120;2022-12-18T08:11:58;-8.10;99.90
19044;DHT22;9654;52.302;8.120;2022-12-18T08:14:27;-8.00;99.90
19044;DHT22;9654;52.302;8.120;2022-12-18T08:16:54;-7.90;99.90
19044;DHT22;9654;52.302;8.120;2022-12-18T08:19:21;-7.90;99.90
19044;DHT22;9654;52.302;8.120;2022-12-18T08:21:48;-7.70;99.90
19044;DHT22;9654;52.302;8.120;2022-12-18T08:24:15;-7.50;99.90
19044;DHT22;9654;52.302;8.120;2022-12-18T08:26:42;-7.50;99.90
19044;DHT22;9654;52.302;8.120;2022-12-18T08:29:18;-7.30;99.90
19044;DHT22;9654;52.302;8.120;2022-12-18T08:31:46;-7.20;99.90
19044;DHT22;9654;52.302;8.120;2022-12-18T08:34:13;-7.10;99.90
19044;DHT22;9654;52.302;8.120;2022-12-18T08:36:40;-7.00;99.90
19044;DHT22;9654;52.302;8.120;2022-12-18T08:39:07;-6.90;99.90
19044;DHT22;9654;52.302;8.120;2022-12-18T08:41:34;-6.80;99.90
19044;DHT22;9654;52.302;8.120;2022-12-18T08:44:35;-6.70;99.90
19044;DHT22;9654;52.302;8.120;2022-12-18T08:47:05;-6.60;99.90
19044;DHT22;9654;52.302;8.120;2022-12-18T08:49:32;-6.50;99.90
19044;DHT22;9654;52.302;8.120;2022-12-18T08:51:59;-6.40;99.90
19044;DHT22;9654;52.302;8.120;2022-12-18T08:54:27;-6.30;99.90
19044;DHT22;9654;52.302;8.120;2022-12-18T08:56:54;-6.30;99.90
19044;DHT22;9654;52.302;8.120;2022-12-18T08:59:21;-6.20;99.90
19044;DHT22;9654;52.302;8.120;2022-12-18T09:01:48;-6.20;99.90
19044;DHT22;9654;52.302;8.120;2022-12-18T09:04:17;-6.10;99.90
19044;DHT22;9654;52.302;8.120;2022-12-18T09:06:43;-6.00;99.90
19044;DHT22;9654;52.302;8.120;2022-12-18T09:09:10;-5.90;99.90
19044;DHT22;9654;52.302;8.120;2022-12-18T09:11:37;-5.80;99.90
19044;DHT22;9654;52.302;8.120;2022-12-18T09:14:04;-5.80;99.90
19044;DHT22;9654;52.302;8.120;2022-12-18T09:16:32;-5.70;99.90
19044;DHT22;9654;52.302;8.120;2022-12-18T09:19:01;-5.70;99.90
19044;DHT22;9654;52.302;8.120;2022-12-18T09:21:30;-5.70;99.90
19044;DHT22;9654;52.302;8.120;2022-12-18T09:23:57;-5.60;99.90
19044;DHT22;9654;52.302;8.120;2022-12-18T09:26:25;-5.60;99.90
19044;DHT22;9654;52.302;8.120;2022-12-18T09:28:53;-5.50;99.90
19044;DHT22;9654;52.302;8.120;2022-12-18T09:31:22;-5.50;99.90
19044;DHT22;9654;52.302;8.120;2022-12-18T09:33:49;-5.40;99.90
19044;DHT22;9654;52.302;8.120;2022-12-18T09:36:17;-5.40;99.90
19044;DHT22;9654;52.302;8.120;2022-12-18T09:38:45;-5.30;99.90
19044;DHT22;9654;52.302;8.120;2022-12-18T09:41:34;-5.30;99.90
19044;DHT22;9654;52.302;8.120;2022-12-18T09:44:13;-5.20;99.90
19044;DHT22;9654;52.302;8.120;2022-12-18T09:46:45;-5.10;99.90
19044;DHT22;9654;52.302;8.120;2022-12-18T09:49:15;-5.00;99.90
19044;DHT22;9654;52.302;8.120;2022-12-18T09:51:45;-4.80;99.90
19044;DHT22;9654;52.302;8.120;2022-12-18T09:54:18;-4.70;99.90
19044;DHT22;9654;52.302;8.120;2022-12-18T09:56:46;-4.60;99.90
19044;DHT22;9654;52.302;8.120;2022-12-18T09:59:21;-4.60;99.90
19044;DHT22;9654;52.302;8.120;2022-12-18T10:01:49;-4.50;99.90
19044;DHT22;9654;52.302;8.120;2022-12-18T10:04:16;-4.50;99.90
19044;DHT22;9654;52.302;8.120;2022-12-18T10:06:46;-4.50;99.90
19044;DHT22;9654;52.302;8.120;2022-12-18T10:09:23;-4.30;99.90
19044;DHT22;9654;52.302;8.120;2022-12-18T10:12:00;-4.20;99.90
19044;DHT22;9654;52.302;8.120;2022-12-18T10:14:35;-4.10;99.90
19044;DHT22;9654;52.302;8.120;2022-12-18T10:17:09;-4.00;99.90
19044;DHT22;9654;52.302;8.120;2022-12-18T10:19:43;-4.00;99.90
19044;DHT22;9654;52.302;8.120;2022-12-18T10:22:22;-3.90;99.90
19044;DHT22;9654;52.302;8.120;2022-12-18T10:24:57;-3.80;99.90
19044;DHT22;9654;52.302;8.120;2022-12-18T10:27:26;-3.80;99.90
19044;DHT22;9654;52.302;8.120;2022-12-18T10:29:54;-3.80;99.90
19044;DHT22;9654;52.302;8.120;2022-12-18T10:32:23;-3.70;99.90
19044;DHT22;9654;52.302;8.120;2022-12-18T10:34:54;-3.60;99.90
19044;DHT22;9654;52.302;8.120;2022-12-18T10:37:24;-3.60;99.90
19044;DHT22;9654;52.302;8.120;2022-12-18T10:40:08;-3.50;99.90
19044;DHT22;9654;52.302;8.120;2022-12-18T10:42:36;-3.50;99.90
19044;DHT22;9654;52.302;8.120;2022-12-18T10:45:11;-3.40;99.90
19044;DHT22;9654;52.302;8.120;2022-12-18T10:47:42;-3.30;99.90
19044;DHT22;9654;52.302;8.120;2022-12-18T10:50:19;-3.30;99.90
19044;DHT22;9654;52.302;8.120;2022-12-18T10:52:54;-3.20;99.90
19044;DHT22;9654;52.302;8.120;2022-12-18T10:55:24;-3.10;99.90
19044;DHT22;9654;52.302;8.120;2022-12-18T10:57:56;-3.10;99.90
19044;DHT22;9654;52.302;8.120;2022-12-18T11:00:39;-3.00;99.90
19044;DHT22;9654;52.302;8.120;2022-12-18T11:03:32;-3.00;99.90
19044;DHT22;9654;52.302;8.120;2022-12-18T11:06:06;-3.00;99.90
19044;DHT22;9654;52.302;8.120;2022-12-18T11:08:34;-3.10;99.90
19044;DHT22;9654;52.302;8.120;2022-12-18T11:11:01;-3.10;99.90
19044;DHT22;9654;52.302;8.120;2022-12-18T11:13:29;-3.10;99.90
19044;DHT22;9654;52.302;8.120;2022-12-18T11:15:57;-3.10;99.90
19044;DHT22;9654;52.302;8.120;2022-12-18T11:18:27;-3.10;99.90
19044;DHT22;9654;52.302;8.120;2022-12-18T11:21:00;-3.10;99.90
19044;DHT22;9654;52.302;8.120;2022-12-18T11:23:33;-3.10;99.90
19044;DHT22;9654;52.302;8.120;2022-12-18T11:26:04;-3.10;99.90
19044;DHT22;9654;52.302;8.120;2022-12-18T11:28:36;-3.20;99.90
19044;DHT22;9654;52.302;8.120;2022-12-18T11:31:20;-3.10;99.90
19044;DHT22;9654;52.302;8.120;2022-12-18T11:33:53;-3.10;99.90
19044;DHT22;9654;52.302;8.120;2022-12-18T11:36:25;-3.10;99.90
19044;DHT22;9654;52.302;8.120;2022-12-18T11:38:56;-3.00;99.90
19044;DHT22;9654;52.302;8.120;2022-12-18T11:41:29;-3.00;99.90
19044;DHT22;9654;52.302;8.120;2022-12-18T11:44:15;-2.90;99.90
19044;DHT22;9654;52.302;8.120;2022-12-18T11:46:49;-2.80;99.90
19044;DHT22;9654;52.302;8.120;2022-12-18T11:49:22;-2.70;99.90
19044;DHT22;9654;52.302;8.120;2022-12-18T11:51:58;-2.80;99.90
19044;DHT22;9654;52.302;8.120;2022-12-18T11:54:26;-2.80;99.90
19044;DHT22;9654;52.302;8.120;2022-12-18T11:56:55;-2.70;99.90
19044;DHT22;9654;52.302;8.120;2022-12-18T11:59:31;-2.70;99.90
19044;DHT22;9654;52.302;8.120;2022-12-18T12:02:09;-2.70;99.90
19044;DHT22;9654;52.302;8.120;2022-12-18T12:05:00;-2.60;99.90
19044;DHT22;9654;52.302;8.120;2022-12-18T12:07:41;-2.60;99.90
19044;DHT22;9654;52.302;8.120;2022-12-18T12:10:22;-2.60;99.90
19044;DHT22;9654;52.302;8.120;2022-12-18T12:13:05;-2.50;99.90
19044;DHT22;9654;52.302;8.120;2022-12-18T12:15:43;-2.40;99.90
19044;DHT22;9654;52.302;8.120;2022-12-18T12:18:23;-2.40;99.90
19044;DHT22;9654;52.302;8.120;2022-12-18T12:21:00;-2.40;99.90
19044;DHT22;9654;52.302;8.120;2022-12-18T12:23:37;-2.30;99.90
19044;DHT22;9654;52.302;8.120;2022-12-18T12:26:11;-2.30;99.90
19044;DHT22;9654;52.302;8.120;2022-12-18T12:28:57;-2.20;99.90
19044;DHT22;9654;52.302;8.120;2022-12-18T12:31:38;-2.20;99.90
19044;DHT22;9654;52.302;8.120;2022-12-18T12:34:15;-2.10;99.90
19044;DHT22;9654;52.302;8.120;2022-12-18T12:36:52;-2.10;99.90
19044;DHT22;9654;52.302;8.120;2022-12-18T12:39:27;-2.00;99.90
19044;DHT22;9654;52.302;8.120;2022-12-18T12:41:55;-2.00;99.90
19044;DHT22;9654;52.302;8.120;2022-12-18T12:44:44;-1.90;99.90
19044;DHT22;9654;52.302;8.120;2022-12-18T12:47:16;-1.90;99.90
19044;DHT22;9654;52.302;8.120;2022-12-18T12:49:47;-1.90;99.90
19044;DHT22;9654;52.302;8.120;2022-12-18T12:52:20;-1.80;99.90
19044;DHT22;9654;52.302;8.120;2022-12-18T12:54:51;-1.80;99.90
19044;DHT22;9654;52.302;8.120;2022-12-18T12:57:24;-1.80;99.90
19044;DHT22;9654;52.302;8.120;2022-12-18T12:59:59;-1.70;99.90
19044;DHT22;9654;52.302;8.120;2022-12-18T13:02:32;-1.70;99.90
19044;DHT22;9654;52.302;8.120;2022-12-18T13:05:03;-1.70;99.90
19044;DHT22;9654;52.302;8.120;2022-12-18T13:07:36;-1.70;99.90
19044;DHT22;9654;52.302;8.120;2022-12-18T13:10:26;-1.60;99.90
19044;DHT22;9654;52.302;8.120;2022-12-18T13:12:59;-1.60;99.90
19044;DHT22;9654;52.302;8.120;2022-12-18T13:15:30;-1.60;99.90
19044;DHT22;9654;52.302;8.120;2022-12-18T13:18:15;-1.60;99.90
19044;DHT22;9654;52.302;8.120;2022-12-18T13:20:44;-1.60;99.90
19044;DHT22;9654;52.302;8.120;2022-12-18T13:23:27;-1.60;99.90
19044;DHT22;9654;52.302;8.120;2022-12-18T13:25:57;-1.60;99.90
19044;DHT22;9654;52.302;8.120;2022-12-18T13:28:51;-1.60;99.90
19044;DHT22;9654;52.302;8.120;2022-12-18T13:34:28;-1.50;99.90
19044;DHT22;9654;52.302;8.120;2022-12-18T13:36:57;-1.50;99.90
19044;DHT22;9654;52.302;8.120;2022-12-18T13:39:43;-1.50;99.90
19044;DHT22;9654;52.302;8.120;2022-12-18T13:42:41;-1.50;99.90
19044;DHT22;9654;52.302;8.120;2022-12-18T13:45:47;-1.50;99.90
19044;DHT22;9654;52.302;8.120;2022-12-18T13:48:22;-1.50;99.90
19044;DHT22;9654;52.302;8.120;2022-12-18T13:50:53;-1.40;99.90
19044;DHT22;9654;52.302;8.120;2022-12-18T13:53:24;-1.50;99.90
19044;DHT22;9654;52.302;8.120;2022-12-18T13:55:53;-1.50;99.90
19044;DHT22;9654;52.302;8.120;2022-12-18T13:58:21;-1.50;99.90
19044;DHT22;9654;52.302;8.120;2022-12-18T14:00:48;-1.40;99.90
19044;DHT22;9654;52.302;8.120;2022-12-18T14:03:18;-1.40;99.90
19044;DHT22;9654;52.302;8.120;2022-12-18T14:05:45;-1.40;99.90
19044;DHT22;9654;52.302;8.120;2022-12-18T14:08:14;-1.40;99.90
19044;DHT22;9654;52.302;8.120;2022-12-18T14:10:42;-1.40;99.90
19044;DHT22;9654;52.302;8.120;2022-12-18T14:13:15;-1.40;99.90
19044;DHT22;9654;52.302;8.120;2022-12-18T14:15:48;-1.40;99.90
19044;DHT22;9654;52.302;8.120;2022-12-18T14:18:20;-1.40;99.90
19044;DHT22;9654;52.302;8.120;2022-12-18T14:20:49;-1.50;99.90
19044;DHT22;9654;52.302;8.120;2022-12-18T14:23:31;-1.50;99.90
19044;DHT22;9654;52.302;8.120;2022-12-18T14:25:58;-1.50;99.90
19044;DHT22;9654;52.302;8.120;2022-12-18T14:28:25;-1.50;99.90
19044;DHT22;9654;52.302;8.120;2022-12-18T14:30:53;-1.50;99.90
19044;DHT22;9654;52.302;8.120;2022-12-18T14:33:23;-1.60;99.90
19044;DHT22;9654;52.302;8.120;2022-12-18T14:35:55;-1.60;99.90
19044;DHT22;9654;52.302;8.120;2022-12-18T14:38:27;-1.60;99.90
19044;DHT22;9654;52.302;8.120;2022-12-18T14:40:59;-1.60;99.90
19044;DHT22;9654;52.302;8.120;2022-12-18T14:43:31;-1.60;99.90
19044;DHT22;9654;52.302;8.120;2022-12-18T14:46:05;-1.60;99.90
19044;DHT22;9654;52.302;8.120;2022-12-18T14:48:36;-1.60;99.90
19044;DHT22;9654;52.302;8.120;2022-12-18T14:51:05;-1.60;99.90
19044;DHT22;9654;52.302;8.120;2022-12-18T14:53:36;-1.60;99.90
19044;DHT22;9654;52.302;8.120;2022-12-18T14:56:14;-1.60;99.90
19044;DHT22;9654;52.302;8.120;2022-12-18T14:58:47;-1.60;99.90
19044;DHT22;9654;52.302;8.120;2022-12-18T15:01:45;-1.60;99.90
19044;DHT22;9654;52.302;8.120;2022-12-18T15:04:26;-1.70;99.90
19044;DHT22;9654;52.302;8.120;2022-12-18T15:07:13;-1.70;99.90
19044;DHT22;9654;52.302;8.120;2022-12-18T15:10:08;-1.70;99.90
19044;DHT22;9654;52.302;8.120;2022-12-18T15:12:37;-1.60;99.90
19044;DHT22;9654;52.302;8.120;2022-12-18T15:15:43;-1.60;99.90
19044;DHT22;9654;52.302;8.120;2022-12-18T15:18:14;-1.60;99.90
19044;DHT22;9654;52.302;8.120;2022-12-18T15:20:44;-1.60;99.90
19044;DHT22;9654;52.302;8.120;2022-12-18T15:23:17;-1.60;99.90
19044;DHT22;9654;52.302;8.120;2022-12-18T15:25:45;-1.60;99.90
19044;DHT22;9654;52.302;8.120;2022-12-18T15:28:23;-1.60;99.90
19044;DHT22;9654;52.302;8.120;2022-12-18T15:31:22;-1.60;99.90
19044;DHT22;9654;52.302;8.120;2022-12-18T15:34:19;-1.50;99.90
19044;DHT22;9654;52.302;8.120;2022-12-18T15:36:47;-1.60;99.90
19044;DHT22;9654;52.302;8.120;2022-12-18T15:39:14;-1.60;99.90
19044;DHT22;9654;52.302;8.120;2022-12-18T15:41:41;-1.50;99.90
19044;DHT22;9654;52.302;8.120;2022-12-18T15:44:28;-1.50;99.90
19044;DHT22;9654;52.302;8.120;2022-12-18T15:46:57;-1.50;99.90
19044;DHT22;9654;52.302;8.120;2022-12-18T15:49:25;-1.50;99.90
19044;DHT22;9654;52.302;8.120;2022-12-18T15:51:53;-1.50;99.90
19044;DHT22;9654;52.302;8.120;2022-12-18T15:54:22;-1.50;99.90
19044;DHT22;9654;52.302;8.120;2022-12-18T15:57:03;-1.40;99.90
19044;DHT22;9654;52.302;8.120;2022-12-18T15:59:46;-1.40;99.90
19044;DHT22;9654;52.302;8.120;2022-12-18T16:02:16;-1.30;99.90
19044;DHT22;9654;52.302;8.120;2022-12-18T16:04:45;-1.30;99.90
19044;DHT22;9654;52.302;8.120;2022-12-18T16:07:12;-1.30;99.90
19044;DHT22;9654;52.302;8.120;2022-12-18T16:09:39;-1.30;99.90
19044;DHT22;9654;52.302;8.120;2022-12-18T16:12:06;-1.30;99.90